Time;durP1;ratioP1;P1;durP2;ratioP2;P2;SDS_P1;SDS_P2;PMS_P1;PMS_P2;Temp;Humidity;BMP_temperature;BMP_pressure;BME280_temperature;BME280_humidity;BME280_pressure;Samples;Min_cycle;Max_cycle;Signal;HPM_P1;HPM_P2
2024/02/28 00:01:29;;;;;;;1999.90;999.90;;;;;;;;;;6135156;23;20053;-91
2024/02/28 00:03:57;;;;;;;1999.90;999.90;;;;;;;;;;6135185;23;20044;-91
2024/02/28 00:06:24;;;;;;;1999.90;999.90;;;;;;;;;;6136515;23;20024;-91
2024/02/28 00:08:53;;;;;;;1999.90;999.90;;;;;;;;;;6134831;23;20069;-91
2024/02/28 00:11:22;;;;;;;1999.90;999.90;;;;;;;;;;6134845;23;20022;-91
2024/02/28 00:13:53;;;;;;;1999.90;999.90;;;;;;;;;;6139488;23;20021;-90
2024/02/28 00:16:24;;;;;;;1999.90;999.90;;;;;;;;;;6152877;23;20073;-92
2024/02/28 00:21:33;;;;;;;1999.90;999.90;;;;;;;;;;6140834;23;20018;-91
2024/02/28 00:23:59;;;;;;;1999.90;999.90;;;;;;;;;;6135884;23;20041;-89
2024/02/28 00:26:44;;;;;;;1999.90;999.90;;;;;;;;;;6135093;23;20025;-90
2024/02/28 00:29:18;;;;;;;1999.90;999.90;;;;;;;;;;6134154;23;20022;-90
2024/02/28 00:31:47;;;;;;;1999.90;999.90;;;;;;;;;;6133962;23;20025;-88
2024/02/28 00:34:17;;;;;;;1999.90;999.90;;;;;;;;;;6134484;23;20029;-88
2024/02/28 00:36:46;;;;;;;1999.90;999.90;;;;;;;;;;6133265;23;20026;-88
2024/02/28 00:39:13;;;;;;;1999.90;999.90;;;;;;;;;;6133420;23;20041;-89
2024/02/28 00:41:43;;;;;;;1999.90;999.90;;;;;;;;;;6132939;23;20018;-88
2024/02/28 00:44:10;;;;;;;1999.90;999.90;;;;;;;;;;6133000;23;20026;-88
2024/02/28 00:46:36;;;;;;;1999.90;999.90;;;;;;;;;;6132004;23;20033;-89
2024/02/28 00:49:03;;;;;;;1999.90;999.90;;;;;;;;;;6132423;23;20026;-89
2024/02/28 00:51:30;;;;;;;1999.90;999.90;;;;;;;;;;6131868;23;20041;-89
2024/02/28 00:53:58;;;;;;;1999.90;999.90;;;;;;;;;;6131442;23;20059;-88
2024/02/28 00:56:27;;;;;;;1999.90;999.90;;;;;;;;;;6131610;23;20085;-89
2024/02/28 00:58:53;;;;;;;1999.90;999.90;;;;;;;;;;6131368;23;20473;-88
2024/02/28 01:01:20;;;;;;;1999.90;999.90;;;;;;;;;;6134130;23;20086;-88
2024/02/28 01:03:46;;;;;;;1999.90;999.90;;;;;;;;;;6136065;23;20050;-85
2024/02/28 01:06:14;;;;;;;1999.90;999.90;;;;;;;;;;6126984;23;20454;-84
2024/02/28 01:08:41;;;;;;;1999.90;999.90;;;;;;;;;;6128157;23;20026;-84
2024/02/28 01:11:09;;;;;;;1999.90;999.90;;;;;;;;;;6128091;23;20053;-85
2024/02/28 01:13:35;;;;;;;1999.90;999.90;;;;;;;;;;6127070;23;20029;-84
2024/02/28 01:16:02;;;;;;;1999.90;999.90;;;;;;;;;;6126505;23;20062;-84
2024/02/28 01:18:30;;;;;;;1999.90;999.90;;;;;;;;;;6127367;23;20073;-84
2024/02/28 01:20:57;;;;;;;1999.90;999.90;;;;;;;;;;6127018;23;20022;-84
2024/02/28 01:23:23;;;;;;;1999.90;999.90;;;;;;;;;;6127574;23;20101;-83
2024/02/28 01:25:50;;;;;;;1999.90;999.90;;;;;;;;;;6127686;23;20032;-83
2024/02/28 01:28:18;;;;;;;1999.90;999.90;;;;;;;;;;6128839;23;20103;-84
2024/02/28 01:30:44;;;;;;;1999.90;999.90;;;;;;;;;;6129075;23;20026;-84
2024/02/28 01:33:12;;;;;;;1999.90;999.90;;;;;;;;;;6127604;23;20655;-84
2024/02/28 01:35:39;;;;;;;1999.90;999.90;;;;;;;;;;6127082;23;20343;-83
2024/02/28 01:38:05;;;;;;;1999.90;999.90;;;;;;;;;;6126956;23;20022;-82
2024/02/28 01:40:32;;;;;;;1999.90;999.90;;;;;;;;;;6126720;23;20022;-83
2024/02/28 01:43:03;;;;;;;1999.90;999.90;;;;;;;;;;6130790;23;20100;-84
2024/02/28 01:45:31;;;;;;;1999.90;999.90;;;;;;;;;;6127659;23;20057;-83
2024/02/28 01:47:58;;;;;;;1999.90;999.90;;;;;;;;;;6127478;23;20105;-83
2024/02/28 01:50:24;;;;;;;1999.90;999.90;;;;;;;;;;6127548;23;20018;-83
2024/02/28 01:52:51;;;;;;;1999.90;999.90;;;;;;;;;;6126961;23;20496;-83
2024/02/28 01:55:18;;;;;;;1999.90;999.90;;;;;;;;;;6127438;23;20024;-83
2024/02/28 01:57:45;;;;;;;1999.90;999.90;;;;;;;;;;6127442;23;20064;-83
2024/02/28 02:00:12;;;;;;;1999.90;999.90;;;;;;;;;;6127127;23;20022;-82
2024/02/28 02:02:41;;;;;;;1999.90;999.90;;;;;;;;;;6126806;23;20024;-83
2024/02/28 02:05:09;;;;;;;1999.90;999.90;;;;;;;;;;6127024;23;20378;-82
2024/02/28 02:07:36;;;;;;;1999.90;999.90;;;;;;;;;;6127458;23;20060;-84
2024/02/28 02:10:03;;;;;;;1999.90;999.90;;;;;;;;;;6127076;23;20028;-84
2024/02/28 02:12:29;;;;;;;1999.90;999.90;;;;;;;;;;6127133;23;20030;-84
2024/02/28 02:14:56;;;;;;;1999.90;999.90;;;;;;;;;;6127309;23;20033;-84
2024/02/28 02:17:22;;;;;;;1999.90;999.90;;;;;;;;;;6127086;23;20026;-84
2024/02/28 02:19:50;;;;;;;1999.90;999.90;;;;;;;;;;6127244;23;20060;-84
2024/02/28 02:22:18;;;;;;;1999.90;999.90;;;;;;;;;;6127639;23;20028;-84
2024/02/28 02:24:46;;;;;;;1999.90;999.90;;;;;;;;;;6127460;23;20053;-84
2024/02/28 02:27:13;;;;;;;1999.90;999.90;;;;;;;;;;6126861;23;20443;-84
2024/02/28 02:29:39;;;;;;;1999.90;999.90;;;;;;;;;;6124060;23;20429;-84
2024/02/28 02:32:06;;;;;;;1999.90;999.90;;;;;;;;;;6123340;23;20362;-83
2024/02/28 02:34:33;;;;;;;1999.90;999.90;;;;;;;;;;6123192;23;20121;-83
2024/02/28 02:36:59;;;;;;;1999.90;999.90;;;;;;;;;;6122396;23;20022;-84
2024/02/28 02:39:26;;;;;;;1999.90;999.90;;;;;;;;;;6123091;23;20025;-83
2024/02/28 02:41:54;;;;;;;1999.90;999.90;;;;;;;;;;6122929;23;20022;-84
2024/02/28 02:44:20;;;;;;;1999.90;999.90;;;;;;;;;;6123001;23;20108;-84
2024/02/28 02:46:47;;;;;;;1999.90;999.90;;;;;;;;;;6123449;23;20101;-84
2024/02/28 02:49:14;;;;;;;1999.90;999.90;;;;;;;;;;6123315;23;20025;-83
2024/02/28 02:51:42;;;;;;;1999.90;999.90;;;;;;;;;;6122810;23;20466;-83
2024/02/28 02:54:09;;;;;;;1999.90;999.90;;;;;;;;;;6122391;23;20088;-84
2024/02/28 02:56:35;;;;;;;1999.90;999.90;;;;;;;;;;6122845;23;20057;-83
2024/02/28 02:59:03;;;;;;;1999.90;999.90;;;;;;;;;;6123734;23;20022;-83
2024/02/28 03:01:30;;;;;;;1999.90;999.90;;;;;;;;;;6123630;23;20048;-83
2024/02/28 03:03:56;;;;;;;1999.90;999.90;;;;;;;;;;6124830;23;20028;-83
2024/02/28 03:06:23;;;;;;;1999.90;999.90;;;;;;;;;;6123010;23;20032;-83
2024/02/28 03:08:50;;;;;;;1999.90;999.90;;;;;;;;;;6122603;23;20580;-83
2024/02/28 03:11:16;;;;;;;1999.90;999.90;;;;;;;;;;6122663;23;20026;-84
2024/02/28 03:13:43;;;;;;;1999.90;999.90;;;;;;;;;;6123007;23;20026;-83
2024/02/28 03:16:11;;;;;;;1999.90;999.90;;;;;;;;;;6122654;23;20057;-84
2024/02/28 03:18:37;;;;;;;1999.90;999.90;;;;;;;;;;6122617;23;20026;-84
2024/02/28 03:21:04;;;;;;;1999.90;999.90;;;;;;;;;;6122638;23;20105;-84
2024/02/28 03:23:40;;;;;;;1999.90;999.90;;;;;;;;;;6123220;23;20121;-83
2024/02/28 03:26:07;;;;;;;1999.90;999.90;;;;;;;;;;6122756;23;20026;-82
2024/02/28 03:28:33;;;;;;;1999.90;999.90;;;;;;;;;;6122428;23;20032;-83
2024/02/28 03:31:00;;;;;;;1999.90;999.90;;;;;;;;;;6122346;23;20026;-82
2024/02/28 03:33:29;;;;;;;1999.90;999.90;;;;;;;;;;6122574;23;20462;-83
2024/02/28 03:35:55;;;;;;;1999.90;999.90;;;;;;;;;;6122291;23;20021;-83
2024/02/28 03:38:22;;;;;;;1999.90;999.90;;;;;;;;;;6122527;23;20024;-83
2024/02/28 03:40:48;;;;;;;1999.90;999.90;;;;;;;;;;6122241;23;20028;-83
2024/02/28 03:43:15;;;;;;;1999.90;999.90;;;;;;;;;;6122453;23;20026;-83
2024/02/28 03:45:42;;;;;;;1999.90;999.90;;;;;;;;;;6123189;23;20031;-83
2024/02/28 03:48:08;;;;;;;1999.90;999.90;;;;;;;;;;6122708;23;20480;-83
2024/02/28 03:50:37;;;;;;;1999.90;999.90;;;;;;;;;;6123527;23;20028;-83
2024/02/28 03:53:05;;;;;;;1999.90;999.90;;;;;;;;;;6131756;23;20026;-83
2024/02/28 03:55:31;;;;;;;1999.90;999.90;;;;;;;;;;6140640;23;20037;-83
2024/02/28 03:57:58;;;;;;;1999.90;999.90;;;;;;;;;;6134653;23;20033;-86
2024/02/28 04:00:25;;;;;;;1999.90;999.90;;;;;;;;;;6139044;23;20025;-83
2024/02/28 04:02:52;;;;;;;1999.90;999.90;;;;;;;;;;6133901;23;20022;-82
2024/02/28 04:05:18;;;;;;;1999.90;999.90;;;;;;;;;;6134872;23;20033;-83
2024/02/28 04:07:46;;;;;;;1999.90;999.90;;;;;;;;;;6125402;23;20724;-83
2024/02/28 04:10:12;;;;;;;1999.90;999.90;;;;;;;;;;6122617;23;20450;-82
2024/02/28 04:12:39;;;;;;;1999.90;999.90;;;;;;;;;;6122477;23;20036;-83
2024/02/28 04:15:06;;;;;;;1999.90;999.90;;;;;;;;;;6121819;23;20737;-82
2024/02/28 04:17:33;;;;;;;1999.90;999.90;;;;;;;;;;6122041;23;20116;-83
2024/02/28 04:20:02;;;;;;;1999.90;999.90;;;;;;;;;;6121851;23;20101;-82
2024/02/28 04:22:29;;;;;;;1999.90;999.90;;;;;;;;;;6121693;23;20369;-83
2024/02/28 04:24:57;;;;;;;1999.90;999.90;;;;;;;;;;6121946;23;20641;-82
2024/02/28 04:27:24;;;;;;;1999.90;999.90;;;;;;;;;;6121853;23;20022;-82
2024/02/28 04:29:50;;;;;;;1999.90;999.90;;;;;;;;;;6122076;23;20060;-82
2024/02/28 04:32:17;;;;;;;1999.90;999.90;;;;;;;;;;6121472;23;20026;-82
2024/02/28 04:34:43;;;;;;;1999.90;999.90;;;;;;;;;;6122467;23;20041;-82
2024/02/28 04:37:10;;;;;;;1999.90;999.90;;;;;;;;;;6122021;23;20366;-82
2024/02/28 04:39:36;;;;;;;1999.90;999.90;;;;;;;;;;6121972;23;20371;-83
2024/02/28 04:42:04;;;;;;;1999.90;999.90;;;;;;;;;;6122083;23;20022;-82
2024/02/28 04:44:31;;;;;;;1999.90;999.90;;;;;;;;;;6122100;23;20136;-82
2024/02/28 04:46:58;;;;;;;1999.90;999.90;;;;;;;;;;6121368;23;20058;-82
2024/02/28 04:49:24;;;;;;;1999.90;999.90;;;;;;;;;;6121572;23;20026;-83
2024/02/28 04:51:51;;;;;;;1999.90;999.90;;;;;;;;;;6122174;23;20022;-82
2024/02/28 04:54:20;;;;;;;1999.90;999.90;;;;;;;;;;6122522;23;20028;-82
2024/02/28 04:56:47;;;;;;;1999.90;999.90;;;;;;;;;;6121505;23;20026;-82
2024/02/28 04:59:15;;;;;;;1999.90;999.90;;;;;;;;;;6122073;23;20022;-82
2024/02/28 05:01:42;;;;;;;1999.90;999.90;;;;;;;;;;6123620;23;20101;-83
2024/02/28 05:04:09;;;;;;;1999.90;999.90;;;;;;;;;;6123544;23;20029;-83
2024/02/28 05:06:36;;;;;;;1999.90;999.90;;;;;;;;;;6123196;23;20029;-83
2024/02/28 05:09:03;;;;;;;1999.90;999.90;;;;;;;;;;6123787;23;20029;-83
2024/02/28 05:11:29;;;;;;;1999.90;999.90;;;;;;;;;;6123812;23;20533;-83
2024/02/28 05:13:56;;;;;;;1999.90;999.90;;;;;;;;;;6124183;23;20345;-87
2024/02/28 05:16:24;;;;;;;1999.90;999.90;;;;;;;;;;6124173;23;20536;-84
2024/02/28 05:18:50;;;;;;;1999.90;999.90;;;;;;;;;;6124024;23;20064;-83
2024/02/28 05:21:17;;;;;;;1999.90;999.90;;;;;;;;;;6123661;23;20030;-83
2024/02/28 05:23:43;;;;;;;1999.90;999.90;;;;;;;;;;6123452;23;20061;-83
2024/02/28 05:26:10;;;;;;;1999.90;999.90;;;;;;;;;;6122972;23;20362;-84
2024/02/28 05:28:38;;;;;;;1999.90;999.90;;;;;;;;;;6124482;23;20518;-90
2024/02/28 05:31:21;;;;;;;1999.90;999.90;;;;;;;;;;6128738;23;20037;-86
2024/02/28 05:33:49;;;;;;;1999.90;999.90;;;;;;;;;;6128902;23;20033;-85
2024/02/28 05:36:22;;;;;;;1999.90;999.90;;;;;;;;;;6127652;23;20468;-84
2024/02/28 05:38:49;;;;;;;1999.90;999.90;;;;;;;;;;6128046;23;20022;-85
2024/02/28 05:41:18;;;;;;;1999.90;999.90;;;;;;;;;;6127084;23;20101;-85
2024/02/28 05:43:45;;;;;;;1999.90;999.90;;;;;;;;;;6124920;23;20028;-89
2024/02/28 05:46:12;;;;;;;1999.90;999.90;;;;;;;;;;6136728;23;20025;-90
2024/02/28 05:48:45;;;;;;;1999.90;999.90;;;;;;;;;;6136383;23;20049;-90
2024/02/28 05:51:18;;;;;;;1999.90;999.90;;;;;;;;;;6136872;23;20097;-90
2024/02/28 05:53:46;;;;;;;1999.90;999.90;;;;;;;;;;6136643;23;20034;-89
2024/02/28 05:58:54;;;;;;;1999.90;999.90;;;;;;;;;;6137250;23;20033;-90
2024/02/28 06:01:20;;;;;;;1999.90;999.90;;;;;;;;;;6136667;23;20017;-90
2024/02/28 06:03:52;;;;;;;1999.90;999.90;;;;;;;;;;6137356;23;20033;-89
2024/02/28 06:06:28;;;;;;;1999.90;999.90;;;;;;;;;;6136634;23;20032;-89
2024/02/28 06:08:56;;;;;;;;;;;;;;;;;;6137828;23;20052;-90
2024/02/28 06:11:26;;;;;;;1999.90;999.90;;;;;;;;;;6136633;23;19924;-90
2024/02/28 06:14:02;;;;;;;1999.90;999.90;;;;;;;;;;6136485;23;20455;-90
2024/02/28 06:16:29;;;;;;;1999.90;999.90;;;;;;;;;;6136493;23;20021;-90
2024/02/28 06:18:59;;;;;;;1999.90;999.90;;;;;;;;;;6135661;23;20017;-90
2024/02/28 06:21:35;;;;;;;1999.90;999.90;;;;;;;;;;6135694;23;20135;-90
2024/02/28 06:24:03;;;;;;;1999.90;999.90;;;;;;;;;;6135679;23;20037;-89
2024/02/28 06:26:31;;;;;;;1999.90;999.90;;;;;;;;;;6136117;23;20022;-90
2024/02/28 06:29:01;;;;;;;1999.90;999.90;;;;;;;;;;6136248;23;20125;-91
2024/02/28 06:31:29;;;;;;;1999.90;999.90;;;;;;;;;;6128429;23;20025;-86
2024/02/28 06:33:56;;;;;;;1999.90;999.90;;;;;;;;;;6129425;23;20026;-87
2024/02/28 06:36:22;;;;;;;1999.90;999.90;;;;;;;;;;6130593;23;20049;-87
2024/02/28 06:38:50;;;;;;;1999.90;999.90;;;;;;;;;;6129236;23;20026;-87
2024/02/28 06:41:17;;;;;;;1999.90;999.90;;;;;;;;;;6128000;23;20101;-87
2024/02/28 06:43:45;;;;;;;1999.90;999.90;;;;;;;;;;6128357;23;20025;-87
2024/02/28 06:46:12;;;;;;;1999.90;999.90;;;;;;;;;;6128745;23;20080;-87
2024/02/28 06:48:39;;;;;;;1999.90;999.90;;;;;;;;;;6131638;23;20064;-88
2024/02/28 06:51:06;;;;;;;1999.90;999.90;;;;;;;;;;6131747;23;20053;-87
2024/02/28 06:53:32;;;;;;;1999.90;999.90;;;;;;;;;;6131796;23;20028;-88
2024/02/28 06:56:02;;;;;;;1999.90;999.90;;;;;;;;;;6127432;23;20101;-86
2024/02/28 06:58:29;;;;;;;1999.90;999.90;;;;;;;;;;6122955;23;20021;-84
2024/02/28 07:00:55;;;;;;;1999.90;999.90;;;;;;;;;;6124597;23;20134;-85
2024/02/28 07:03:22;;;;;;;1999.90;999.90;;;;;;;;;;6123831;23;20458;-85
2024/02/28 07:05:50;;;;;;;1999.90;999.90;;;;;;;;;;6124201;23;20022;-86
2024/02/28 07:08:16;;;;;;;1999.90;999.90;;;;;;;;;;6123720;23;20438;-86
2024/02/28 07:10:47;;;;;;;1999.90;999.90;;;;;;;;;;6123865;23;20104;-86
2024/02/28 07:13:15;;;;;;;1999.90;999.90;;;;;;;;;;6124201;23;20021;-86
2024/02/28 07:15:41;;;;;;;1999.90;999.90;;;;;;;;;;6124574;23;20100;-86
2024/02/28 07:18:08;;;;;;;1999.90;999.90;;;;;;;;;;6124020;23;20120;-86
2024/02/28 07:20:35;;;;;;;1999.90;999.90;;;;;;;;;;6124080;23;20072;-86
2024/02/28 07:23:04;;;;;;;1999.90;999.90;;;;;;;;;;6124095;23;20109;-85
2024/02/28 07:25:32;;;;;;;1999.90;999.90;;;;;;;;;;6124688;23;20105;-85
2024/02/28 07:28:00;;;;;;;1999.90;999.90;;;;;;;;;;6125881;23;20022;-87
2024/02/28 07:30:28;;;;;;;1999.90;999.90;;;;;;;;;;6126722;23;20026;-87
2024/02/28 07:32:55;;;;;;;1999.90;999.90;;;;;;;;;;6127004;23;20533;-87
2024/02/28 07:35:23;;;;;;;1999.90;999.90;;;;;;;;;;6129034;23;20463;-87
2024/02/28 07:37:50;;;;;;;1999.90;999.90;;;;;;;;;;6145864;23;20029;-86
2024/02/28 07:40:16;;;;;;;1999.90;999.90;;;;;;;;;;6148372;23;20042;-87
2024/02/28 07:42:43;;;;;;;1999.90;999.90;;;;;;;;;;6139457;23;20041;-87
2024/02/28 07:45:10;;;;;;;1999.90;999.90;;;;;;;;;;6128093;23;20108;-86
2024/02/28 07:47:38;;;;;;;1999.90;999.90;;;;;;;;;;6127516;23;20054;-86
2024/02/28 07:50:05;;;;;;;1999.90;999.90;;;;;;;;;;6128532;23;20026;-84
2024/02/28 07:52:34;;;;;;;1999.90;999.90;;;;;;;;;;6121616;23;20032;-84
2024/02/28 07:55:01;;;;;;;1999.90;999.90;;;;;;;;;;6121273;23;20026;-84
2024/02/28 07:57:28;;;;;;;1999.90;999.90;;;;;;;;;;6121519;23;20064;-84
2024/02/28 07:59:54;;;;;;;1999.90;999.90;;;;;;;;;;6121228;23;20132;-85
2024/02/28 08:02:21;;;;;;;1999.90;999.90;;;;;;;;;;6121237;23;20096;-84
2024/02/28 08:04:50;;;;;;;1999.90;999.90;;;;;;;;;;6120918;23;20026;-85
2024/02/28 08:07:17;;;;;;;1999.90;999.90;;;;;;;;;;6122762;23;20451;-86
2024/02/28 08:09:43;;;;;;;1999.90;999.90;;;;;;;;;;6121573;23;20036;-84
2024/02/28 08:12:10;;;;;;;1999.90;999.90;;;;;;;;;;6121440;23;20399;-84
2024/02/28 08:14:36;;;;;;;1999.90;999.90;;;;;;;;;;6122289;23;20057;-86
2024/02/28 08:17:03;;;;;;;1999.90;999.90;;;;;;;;;;6122422;23;20100;-85
2024/02/28 08:19:29;;;;;;;1999.90;999.90;;;;;;;;;;6121674;23;20029;-86
2024/02/28 08:21:57;;;;;;;1999.90;999.90;;;;;;;;;;6123129;23;20050;-85
2024/02/28 08:24:24;;;;;;;1999.90;999.90;;;;;;;;;;6122331;23;20132;-86
2024/02/28 08:26:50;;;;;;;1999.90;999.90;;;;;;;;;;6121942;23;20021;-84
2024/02/28 08:29:17;;;;;;;1999.90;999.90;;;;;;;;;;6122588;23;20054;-85
2024/02/28 08:31:45;;;;;;;1999.90;999.90;;;;;;;;;;6122370;23;20105;-86
2024/02/28 08:34:11;;;;;;;1999.90;999.90;;;;;;;;;;6122693;23;20022;-85
2024/02/28 08:36:38;;;;;;;1999.90;999.90;;;;;;;;;;6123067;23;20100;-85
2024/02/28 08:39:09;;;;;;;1999.90;999.90;;;;;;;;;;6123120;23;20028;-85
2024/02/28 08:41:35;;;;;;;1999.90;999.90;;;;;;;;;;6123804;23;20028;-85
2024/02/28 08:44:02;;;;;;;1999.90;999.90;;;;;;;;;;6079107;23;1049968;-85
2024/02/28 08:46:29;;;;;;;1999.90;999.90;;;;;;;;;;6125238;23;20054;-85
2024/02/28 08:48:55;;;;;;;1999.90;999.90;;;;;;;;;;6125286;23;20026;-85
2024/02/28 08:51:22;;;;;;;1999.90;999.90;;;;;;;;;;6124927;23;20078;-86
2024/02/28 08:53:48;;;;;;;1999.90;999.90;;;;;;;;;;6126034;23;20026;-86
2024/02/28 08:56:16;;;;;;;1999.90;999.90;;;;;;;;;;6125530;23;20074;-85
2024/02/28 08:58:44;;;;;;;1999.90;999.90;;;;;;;;;;6124817;23;20028;-86
2024/02/28 09:01:14;;;;;;;1999.90;999.90;;;;;;;;;;6126174;23;20030;-85
2024/02/28 09:03:41;;;;;;;1999.90;999.90;;;;;;;;;;6124763;23;20100;-85
2024/02/28 09:06:07;;;;;;;1999.90;999.90;;;;;;;;;;6124997;23;20101;-85
2024/02/28 09:08:34;;;;;;;1999.90;999.90;;;;;;;;;;6124927;23;20085;-85
2024/02/28 09:11:01;;;;;;;1999.90;999.90;;;;;;;;;;6124512;23;20073;-84
2024/02/28 09:13:30;;;;;;;1999.90;999.90;;;;;;;;;;6124633;23;20053;-86
2024/02/28 09:15:56;;;;;;;1999.90;999.90;;;;;;;;;;6125022;23;20026;-85
2024/02/28 09:18:24;;;;;;;1999.90;999.90;;;;;;;;;;6124790;23;20021;-84
2024/02/28 09:20:50;;;;;;;1999.90;999.90;;;;;;;;;;6125798;23;20033;-87
2024/02/28 09:23:17;;;;;;;1999.90;999.90;;;;;;;;;;6125840;23;20061;-86
2024/02/28 09:25:44;;;;;;;1999.90;999.90;;;;;;;;;;6125759;23;20032;-86
2024/02/28 09:28:13;;;;;;;1999.90;999.90;;;;;;;;;;6125346;23;20104;-85
2024/02/28 09:30:41;;;;;;;1999.90;999.90;;;;;;;;;;6125185;23;20029;-86
2024/02/28 09:33:08;;;;;;;1999.90;999.90;;;;;;;;;;6123976;23;20048;-84
2024/02/28 09:35:36;;;;;;;1999.90;999.90;;;;;;;;;;6124460;23;20029;-85
2024/02/28 09:38:02;;;;;;;1999.90;999.90;;;;;;;;;;6124622;23;20026;-85
2024/02/28 09:40:29;;;;;;;1999.90;999.90;;;;;;;;;;6124343;23;20101;-86
2024/02/28 09:43:01;;;;;;;1999.90;999.90;;;;;;;;;;6124329;23;20520;-85
2024/02/28 09:45:30;;;;;;;1999.90;999.90;;;;;;;;;;6123270;23;20025;-83
2024/02/28 09:47:59;;;;;;;1999.90;999.90;;;;;;;;;;6123435;23;20242;-84
2024/02/28 09:50:27;;;;;;;1999.90;999.90;;;;;;;;;;6123814;23;20117;-84
2024/02/28 09:52:53;;;;;;;1999.90;999.90;;;;;;;;;;6123729;23;20021;-86
2024/02/28 09:55:20;;;;;;;1999.90;999.90;;;;;;;;;;6126374;23;20463;-86
2024/02/28 09:57:49;;;;;;;1999.90;999.90;;;;;;;;;;6124733;23;20098;-84
2024/02/28 10:00:18;;;;;;;1999.90;999.90;;;;;;;;;;6126381;23;20429;-86
2024/02/28 10:02:47;;;;;;;1999.90;999.90;;;;;;;;;;6124786;23;20026;-85
2024/02/28 10:05:18;;;;;;;1999.90;999.90;;;;;;;;;;6126078;23;20070;-85
2024/02/28 10:07:45;;;;;;;1999.90;999.90;;;;;;;;;;6125342;23;20100;-85
2024/02/28 10:10:12;;;;;;;1999.90;999.90;;;;;;;;;;6125084;23;20053;-84
2024/02/28 10:12:42;;;;;;;1999.90;999.90;;;;;;;;;;6125862;23;20125;-86
2024/02/28 10:15:10;;;;;;;1999.90;999.90;;;;;;;;;;6126115;23;20028;-86
2024/02/28 10:17:37;;;;;;;1999.90;999.90;;;;;;;;;;6125295;23;20026;-85
2024/02/28 10:20:04;;;;;;;1999.90;999.90;;;;;;;;;;6124473;23;20030;-85
2024/02/28 10:22:38;;;;;;;1999.90;999.90;;;;;;;;;;6124484;23;20017;-86
2024/02/28 10:25:05;;;;;;;1999.90;999.90;;;;;;;;;;6125056;23;20038;-87
2024/02/28 10:27:33;;;;;;;1999.90;999.90;;;;;;;;;;6130744;23;20100;-88
2024/02/28 10:30:01;;;;;;;1999.90;999.90;;;;;;;;;;6129671;23;20045;-86
2024/02/28 10:32:28;;;;;;;1999.90;999.90;;;;;;;;;;6129920;23;20033;-88
2024/02/28 10:34:55;;;;;;;1999.90;999.90;;;;;;;;;;6131688;23;20041;-89
2024/02/28 10:37:22;;;;;;;1999.90;999.90;;;;;;;;;;6129695;23;20052;-87
2024/02/28 10:39:53;;;;;;;1999.90;999.90;;;;;;;;;;6129559;23;20018;-88
2024/02/28 10:42:23;;;;;;;1999.90;999.90;;;;;;;;;;6130213;23;20014;-88
2024/02/28 10:44:52;;;;;;;1999.90;999.90;;;;;;;;;;6129663;23;20478;-88
2024/02/28 10:47:19;;;;;;;1999.90;999.90;;;;;;;;;;6129993;23;20033;-88
2024/02/28 10:49:46;;;;;;;1999.90;999.90;;;;;;;;;;6129930;23;20022;-87
2024/02/28 10:52:14;;;;;;;1999.90;999.90;;;;;;;;;;6129800;23;20097;-89
2024/02/28 10:54:42;;;;;;;1999.90;999.90;;;;;;;;;;6131292;23;20084;-88
2024/02/28 10:57:12;;;;;;;1999.90;999.90;;;;;;;;;;6129356;23;20026;-89
2024/02/28 10:59:39;;;;;;;1999.90;999.90;;;;;;;;;;6131343;23;20066;-89
2024/02/28 11:02:07;;;;;;;1999.90;999.90;;;;;;;;;;6130642;23;20030;-89
2024/02/28 11:04:35;;;;;;;1999.90;999.90;;;;;;;;;;6128166;23;20068;-87
2024/02/28 11:07:01;;;;;;;1999.90;999.90;;;;;;;;;;6130809;23;20026;-89
2024/02/28 11:09:30;;;;;;;1999.90;999.90;;;;;;;;;;6132295;23;20022;-88
2024/02/28 11:11:57;;;;;;;1999.90;999.90;;;;;;;;;;6132464;23;20033;-90
2024/02/28 11:14:26;;;;;;;1999.90;999.90;;;;;;;;;;6131133;23;20482;-89
2024/02/28 11:17:01;;;;;;;1999.90;999.90;;;;;;;;;;6128910;23;20030;-85
2024/02/28 11:19:29;;;;;;;1999.90;999.90;;;;;;;;;;6123609;23;20106;-85
2024/02/28 11:21:56;;;;;;;1999.90;999.90;;;;;;;;;;6122696;23;20026;-85
2024/02/28 11:24:30;;;;;;;1999.90;999.90;;;;;;;;;;6123128;23;20100;-85
2024/02/28 11:26:57;;;;;;;1999.90;999.90;;;;;;;;;;6122622;23;20120;-85
2024/02/28 11:29:27;;;;;;;1999.90;999.90;;;;;;;;;;6122958;23;20030;-85
2024/02/28 11:31:54;;;;;;;1999.90;999.90;;;;;;;;;;6123052;23;20026;-86
2024/02/28 11:34:21;;;;;;;1999.90;999.90;;;;;;;;;;6124286;23;20033;-86
2024/02/28 11:36:49;;;;;;;1999.90;999.90;;;;;;;;;;6123393;23;20029;-85
2024/02/28 11:39:15;;;;;;;1999.90;999.90;;;;;;;;;;6123313;23;20029;-83
2024/02/28 11:41:45;;;;;;;1999.90;999.90;;;;;;;;;;6122099;23;20022;-82
2024/02/28 11:44:11;;;;;;;1999.90;999.90;;;;;;;;;;6121708;23;20068;-83
2024/02/28 11:46:39;;;;;;;1999.90;999.90;;;;;;;;;;6122250;23;20037;-84
2024/02/28 11:49:06;;;;;;;1999.90;999.90;;;;;;;;;;6122211;23;20028;-85
2024/02/28 11:51:33;;;;;;;1999.90;999.90;;;;;;;;;;6122648;23;20029;-84
2024/02/28 11:54:02;;;;;;;1999.90;999.90;;;;;;;;;;6122724;23;20028;-84
2024/02/28 11:56:29;;;;;;;1999.90;999.90;;;;;;;;;;6122525;23;20537;-85
2024/02/28 11:58:55;;;;;;;1999.90;999.90;;;;;;;;;;6122784;23;20104;-85
2024/02/28 12:01:37;;;;;;;1999.90;999.90;;;;;;;;;;6122698;23;20041;-85
2024/02/28 12:04:06;;;;;;;1999.90;999.90;;;;;;;;;;6122700;23;20022;-84
2024/02/28 12:06:32;;;;;;;1999.90;999.90;;;;;;;;;;6122245;23;20017;-85
2024/02/28 12:08:59;;;;;;;1999.90;999.90;;;;;;;;;;6122378;23;20033;-84
2024/02/28 12:11:27;;;;;;;1999.90;999.90;;;;;;;;;;6122237;23;20108;-84
2024/02/28 12:13:54;;;;;;;1999.90;999.90;;;;;;;;;;6122148;23;20045;-84
2024/02/28 12:16:23;;;;;;;1999.90;999.90;;;;;;;;;;6122353;23;20033;-84
2024/02/28 12:18:50;;;;;;;1999.90;999.90;;;;;;;;;;6122258;23;20029;-84
2024/02/28 12:21:18;;;;;;;1999.90;999.90;;;;;;;;;;6121828;23;20049;-83
2024/02/28 12:23:44;;;;;;;1999.90;999.90;;;;;;;;;;6122371;23;20101;-82
2024/02/28 12:26:11;;;;;;;1999.90;999.90;;;;;;;;;;6122253;23;20077;-84
2024/02/28 12:28:37;;;;;;;1999.90;999.90;;;;;;;;;;6121499;23;20026;-84
2024/02/28 12:31:05;;;;;;;1999.90;999.90;;;;;;;;;;6122155;23;20057;-83
2024/02/28 12:33:32;;;;;;;1999.90;999.90;;;;;;;;;;6122385;23;20033;-84
2024/02/28 12:36:01;;;;;;;1999.90;999.90;;;;;;;;;;6122098;23;20054;-84
2024/02/28 12:38:29;;;;;;;1999.90;999.90;;;;;;;;;;6122019;23;20747;-84
2024/02/28 12:40:55;;;;;;;1999.90;999.90;;;;;;;;;;6121419;23;20028;-84
2024/02/28 12:43:22;;;;;;;1999.90;999.90;;;;;;;;;;6121871;23;20053;-84
2024/02/28 12:45:48;;;;;;;1999.90;999.90;;;;;;;;;;6121542;23;20036;-83
2024/02/28 12:48:15;;;;;;;1999.90;999.90;;;;;;;;;;6121481;23;20022;-83
2024/02/28 12:50:42;;;;;;;1999.90;999.90;;;;;;;;;;6121591;23;20032;-83
2024/02/28 12:53:08;;;;;;;1999.90;999.90;;;;;;;;;;6121449;23;20362;-83
2024/02/28 12:55:36;;;;;;;1999.90;999.90;;;;;;;;;;6121243;23;20048;-84
2024/02/28 12:58:04;;;;;;;1999.90;999.90;;;;;;;;;;6121792;23;20032;-84
2024/02/28 13:00:31;;;;;;;1999.90;999.90;;;;;;;;;;6121734;23;20022;-84
2024/02/28 13:02:57;;;;;;;1999.90;999.90;;;;;;;;;;6121705;23;20120;-84
2024/02/28 13:05:24;;;;;;;1999.90;999.90;;;;;;;;;;6121574;23;20033;-84
2024/02/28 13:07:50;;;;;;;1999.90;999.90;;;;;;;;;;6126296;23;20061;-91
2024/02/28 13:10:17;;;;;;;1999.90;999.90;;;;;;;;;;6132308;23;20034;-90
2024/02/28 13:12:46;;;;;;;1999.90;999.90;;;;;;;;;;6131294;23;20026;-93
2024/02/28 13:15:15;;;;;;;1999.90;999.90;;;;;;;;;;6131829;23;20049;-92
2024/02/28 13:17:52;;;;;;;1999.90;999.90;;;;;;;;;;6131228;23;20097;-89
2024/02/28 13:20:19;;;;;;;1999.90;999.90;;;;;;;;;;6131202;23;20025;-90
2024/02/28 13:22:45;;;;;;;1999.90;999.90;;;;;;;;;;6134495;23;20018;-92
2024/02/28 13:25:14;;;;;;;1999.90;999.90;;;;;;;;;;6133301;23;20018;-94
2024/02/28 13:27:40;;;;;;;1999.90;999.90;;;;;;;;;;6135728;23;20030;-92
2024/02/28 13:30:13;;;;;;;1999.90;999.90;;;;;;;;;;6134520;23;20037;-93
2024/02/28 13:32:40;;;;;;;1999.90;999.90;;;;;;;;;;6135791;23;20026;-95
2024/02/28 13:37:50;;;;;;;1999.90;999.90;;;;;;;;;;6136571;23;20022;-93
2024/02/28 13:40:16;;;;;;;1999.90;999.90;;;;;;;;;;6136083;23;20021;-94
2024/02/28 13:42:45;;;;;;;1999.90;999.90;;;;;;;;;;6137056;23;20029;-96
2024/02/28 13:45:21;;;;;;;1999.90;999.90;;;;;;;;;;6137103;23;20077;-93
2024/02/28 13:48:20;;;;;;;1999.90;999.90;;;;;;;;;;6143010;23;20025;-96
2024/02/28 13:50:47;;;;;;;1999.90;999.90;;;;;;;;;;6124169;23;20050;-80
2024/02/28 13:53:14;;;;;;;1999.90;999.90;;;;;;;;;;6124265;23;20022;-81